ARG1618 SABE-SAZB
Flight info
| Callsign | ARG1618 |
|---|---|
| Flight time | N/A |
| Altitude | 38000 |
| Route | PAL9 GBE UT694 XODIK UW18 MOXAN MOXAN2U |
| Aircraft | B738/M-SDE2E3FGHIRWXY/LB1 |
Departure
| Time | 2026-05-07 00:20 |
|---|---|
| Airport | Aeroparque Jorge Newbery (SABE) |
Arrival
| Time | N/A |
|---|---|
| Airport | Comandante Espora Airport (SAZB) |
| Time | Latitude | Longitude | Altitude | Speed | Heading |
|---|---|---|---|---|---|
| 2026-05-06 23:47 | -34.55802 | -58.41445 | 30 ft | 0 kts | 207° |
| 2026-05-07 00:05 | -34.55783 | -58.41434 | 25 ft | 4 kts | 209° |
| 2026-05-07 00:05 | -34.55766 | -58.41418 | 27 ft | 4 kts | 264° |
| 2026-05-07 00:06 | -34.55773 | -58.41400 | 30 ft | 4 kts | 304° |
| 2026-05-07 00:06 | -34.55781 | -58.41386 | 25 ft | 0 kts | 304° |
| 2026-05-07 00:09 | -34.55778 | -58.41391 | 25 ft | 4 kts | 304° |
| 2026-05-07 00:09 | -34.55738 | -58.41467 | 26 ft | 16 kts | 298° |
| 2026-05-07 00:10 | -34.55726 | -58.41537 | 24 ft | 4 kts | 253° |
| 2026-05-07 00:10 | -34.55748 | -58.41567 | 26 ft | 6 kts | 219° |
| 2026-05-07 00:10 | -34.55783 | -58.41587 | 25 ft | 2 kts | 180° |
| 2026-05-07 00:10 | -34.55802 | -58.41576 | 25 ft | 5 kts | 146° |
| 2026-05-07 00:11 | -34.55824 | -58.41537 | 25 ft | 7 kts | 121° |
| 2026-05-07 00:11 | -34.55856 | -58.41471 | 26 ft | 10 kts | 114° |
| 2026-05-07 00:11 | -34.55892 | -58.41381 | 24 ft | 13 kts | 117° |
| 2026-05-07 00:11 | -34.55942 | -58.41273 | 26 ft | 16 kts | 124° |
| 2026-05-07 00:12 | -34.56015 | -58.41156 | 27 ft | 19 kts | 127° |
| 2026-05-07 00:12 | -34.56061 | -58.41078 | 27 ft | 10 kts | 127° |
| 2026-05-07 00:12 | -34.56113 | -58.40997 | 26 ft | 13 kts | 126° |
| 2026-05-07 00:12 | -34.56165 | -58.40895 | 24 ft | 10 kts | 115° |
| 2026-05-07 00:13 | -34.56179 | -58.40821 | 25 ft | 10 kts | 116° |
| 2026-05-07 00:13 | -34.56221 | -58.40740 | 25 ft | 13 kts | 124° |
| 2026-05-07 00:13 | -34.56277 | -58.40640 | 27 ft | 16 kts | 124° |
| 2026-05-07 00:13 | -34.56355 | -58.40534 | 27 ft | 18 kts | 137° |
| 2026-05-07 00:14 | -34.56413 | -58.40470 | 25 ft | 0 kts | 138° |
| 2026-05-07 00:16 | -34.56418 | -58.40465 | 29 ft | 4 kts | 138° |
| 2026-05-07 00:17 | -34.56467 | -58.40412 | 25 ft | 10 kts | 138° |
| 2026-05-07 00:17 | -34.56504 | -58.40384 | 25 ft | 3 kts | 177° |
| 2026-05-07 00:17 | -34.56544 | -58.40401 | 25 ft | 1 kts | 212° |
| 2026-05-07 00:17 | -34.56559 | -58.40428 | 25 ft | 0 kts | 250° |
| 2026-05-07 00:18 | -34.56555 | -58.40442 | 26 ft | 5 kts | 291° |
| 2026-05-07 00:18 | -34.56541 | -58.40474 | 25 ft | 0 kts | 302° |
| 2026-05-07 00:19 | -34.56540 | -58.40475 | 25 ft | 1 kts | 302° |
| 2026-05-07 00:19 | -34.56448 | -58.40646 | 27 ft | 70 kts | 304° |
| 2026-05-07 00:19 | -34.55985 | -58.41484 | 28 ft | 165 kts | 303° |
| 2026-05-07 00:19 | -34.55237 | -58.42815 | 589 ft | 201 kts | 305° |
| 2026-05-07 00:20 | -34.54422 | -58.44220 | 1736 ft | 208 kts | 309° |
| 2026-05-07 00:20 | -34.53160 | -58.45171 | 2583 ft | 231 kts | 347° |
| 2026-05-07 00:20 | -34.51479 | -58.44933 | 3197 ft | 260 kts | 24° |
| 2026-05-07 00:20 | -34.50011 | -58.43731 | 3876 ft | 242 kts | 47° |
| 2026-05-07 00:21 | -34.49303 | -58.41996 | 3684 ft | 233 kts | 80° |
| 2026-05-07 00:21 | -34.49622 | -58.39832 | 3191 ft | 295 kts | 116° |
| 2026-05-07 00:21 | -34.50504 | -58.37393 | 3143 ft | 333 kts | 109° |
| 2026-05-07 00:21 | -34.51193 | -58.34711 | 4042 ft | 338 kts | 106° |
| 2026-05-07 00:22 | -34.51854 | -58.31923 | 4784 ft | 355 kts | 106° |
| 2026-05-07 00:22 | -34.52572 | -58.28885 | 5005 ft | 394 kts | 106° |